sensor_id;sensor_type;location;lat;lon;timestamp;pressure;altitude;pressure_sealevel;temperature;humidity
7018;BME280;3549;42.162;24.726;2023-05-23T00:01:54;47697.84;;;-141.97;88.31
7018;BME280;3549;42.162;24.726;2023-05-23T00:04:23;47594.03;;;-141.97;88.49
7018;BME280;3549;42.162;24.726;2023-05-23T00:06:50;47730.50;;;-141.97;89.61
7018;BME280;3549;42.162;24.726;2023-05-23T00:09:17;47711.28;;;-141.97;89.99
7018;BME280;3549;42.162;24.726;2023-05-23T00:11:43;47726.66;;;-141.97;89.44
7018;BME280;3549;42.162;24.726;2023-05-23T00:14:13;47557.53;;;-141.97;89.58
7018;BME280;3549;42.162;24.726;2023-05-23T00:16:40;47690.16;;;-141.97;90.11
7018;BME280;3549;42.162;24.726;2023-05-23T00:19:07;47845.84;;;-141.97;91.43
7018;BME280;3549;42.162;24.726;2023-05-23T00:21:32;47676.69;;;-141.97;91.26
7018;BME280;3549;42.162;24.726;2023-05-23T00:23:58;47818.94;;;-141.97;91.45
7018;BME280;3549;42.162;24.726;2023-05-23T00:26:23;47626.72;;;-141.97;91.77
7018;BME280;3549;42.162;24.726;2023-05-23T00:28:49;47692.06;;;-141.97;91.90
7018;BME280;3549;42.162;24.726;2023-05-23T00:31:14;47688.22;;;-141.97;92.04
7018;BME280;3549;42.162;24.726;2023-05-23T00:33:40;47534.44;;;-141.97;91.61
7018;BME280;3549;42.162;24.726;2023-05-23T00:36:05;47699.75;;;-141.97;91.60
7018;BME280;3549;42.162;24.726;2023-05-23T00:38:30;47765.09;;;-141.97;91.60
7018;BME280;3549;42.162;24.726;2023-05-23T00:40:56;47680.53;;;-141.97;91.61
7018;BME280;3549;42.162;24.726;2023-05-23T00:43:21;47711.28;;;-141.97;91.98
7018;BME280;3549;42.162;24.726;2023-05-23T00:45:50;47857.38;;;-141.97;91.76
7018;BME280;3549;42.162;24.726;2023-05-23T00:48:15;47840.06;;;-141.97;91.43
7018;BME280;3549;42.162;24.726;2023-05-23T00:50:41;47699.75;;;-141.97;91.98
7018;BME280;3549;42.162;24.726;2023-05-23T00:53:07;47634.41;;;-141.97;92.31
7018;BME280;3549;42.162;24.726;2023-05-23T00:55:32;47711.28;;;-141.97;93.39
7018;BME280;3549;42.162;24.726;2023-05-23T00:57:58;47845.84;;;-141.97;93.53
7018;BME280;3549;42.162;24.726;2023-05-23T01:00:24;47697.84;;;-141.97;93.07
7018;BME280;3549;42.162;24.726;2023-05-23T01:02:51;47694.00;;;-141.97;92.51
7018;BME280;3549;42.162;24.726;2023-05-23T01:05:18;47703.59;;;-141.97;92.70
7018;BME280;3549;42.162;24.726;2023-05-23T01:07:47;47765.09;;;-141.97;93.06
7018;BME280;3549;42.162;24.726;2023-05-23T01:10:14;47832.38;;;-141.97;92.58
7018;BME280;3549;42.162;24.726;2023-05-23T01:15:14;47824.69;;;-141.97;92.01
7018;BME280;3549;42.162;24.726;2023-05-23T01:20:42;47711.28;;;-141.97;94.71
7018;BME280;3549;42.162;24.726;2023-05-23T01:23:28;47707.44;;;-141.97;94.92
7018;BME280;3549;42.162;24.726;2023-05-23T01:28:46;47607.50;;;-141.97;93.02
7018;BME280;3549;42.162;24.726;2023-05-23T01:31:12;47715.13;;;-141.97;92.76
7018;BME280;3549;42.162;24.726;2023-05-23T01:33:39;47713.22;;;-141.97;93.98
7018;BME280;3549;42.162;24.726;2023-05-23T01:36:06;47697.84;;;-141.97;95.30
7018;BME280;3549;42.162;24.726;2023-05-23T01:38:32;47688.22;;;-141.97;95.76
7018;BME280;3549;42.162;24.726;2023-05-23T01:40:57;47657.47;;;-141.97;96.34
7018;BME280;3549;42.162;24.726;2023-05-23T01:43:23;47730.50;;;-141.97;95.63
7018;BME280;3549;42.162;24.726;2023-05-23T01:45:51;47853.53;;;-141.97;95.18
7018;BME280;3549;42.162;24.726;2023-05-23T01:48:18;47672.84;;;-141.97;94.55
7018;BME280;3549;42.162;24.726;2023-05-23T01:50:45;47745.88;;;-141.97;94.24
7018;BME280;3549;42.162;24.726;2023-05-23T01:53:12;47644.00;;;-141.97;93.97
7018;BME280;3549;42.162;24.726;2023-05-23T01:55:40;47788.19;;;-141.97;93.11
7018;BME280;3549;42.162;24.726;2023-05-23T01:58:06;47715.13;;;-141.97;93.14
7018;BME280;3549;42.162;24.726;2023-05-23T02:00:31;47688.22;;;-141.97;92.84
7018;BME280;3549;42.162;24.726;2023-05-23T02:02:58;47707.44;;;-141.97;93.46
7018;BME280;3549;42.162;24.726;2023-05-23T02:05:23;47734.34;;;-141.97;93.22
7018;BME280;3549;42.162;24.726;2023-05-23T02:07:48;47761.25;;;-141.97;92.96
7018;BME280;3549;42.162;24.726;2023-05-23T02:10:14;47705.53;;;-141.97;93.48
7018;BME280;3549;42.162;24.726;2023-05-23T02:12:39;47730.50;;;-141.97;93.06
7018;BME280;3549;42.162;24.726;2023-05-23T02:15:05;47551.75;;;-141.97;92.07
7018;BME280;3549;42.162;24.726;2023-05-23T02:17:31;47743.97;;;-141.97;91.38
7018;BME280;3549;42.162;24.726;2023-05-23T02:19:57;47686.31;;;-141.97;92.28
7018;BME280;3549;42.162;24.726;2023-05-23T02:22:22;47738.19;;;-141.97;92.99
7018;BME280;3549;42.162;24.726;2023-05-23T02:24:51;47678.63;;;-141.97;93.94
7018;BME280;3549;42.162;24.726;2023-05-23T02:27:17;47651.69;;;-141.97;94.18
7018;BME280;3549;42.162;24.726;2023-05-23T02:29:42;47709.38;;;-141.97;93.66
7018;BME280;3549;42.162;24.726;2023-05-23T02:32:08;47707.44;;;-141.97;93.29
7018;BME280;3549;42.162;24.726;2023-05-23T02:34:33;47738.19;;;-141.97;92.63
7018;BME280;3549;42.162;24.726;2023-05-23T02:36:59;47878.53;;;-141.97;92.56
7018;BME280;3549;42.162;24.726;2023-05-23T02:39:24;47842.00;;;-141.97;92.28
7018;BME280;3549;42.162;24.726;2023-05-23T02:41:49;47663.22;;;-141.97;92.16
7018;BME280;3549;42.162;24.726;2023-05-23T02:44:15;47692.06;;;-141.97;92.29
7018;BME280;3549;42.162;24.726;2023-05-23T02:46:43;47711.28;;;-141.97;92.23
7018;BME280;3549;42.162;24.726;2023-05-23T02:49:09;47817.00;;;-141.97;92.74
7018;BME280;3549;42.162;24.726;2023-05-23T02:51:34;47730.50;;;-141.97;92.37
7018;BME280;3549;42.162;24.726;2023-05-23T02:54:00;47722.81;;;-141.97;91.50
7018;BME280;3549;42.162;24.726;2023-05-23T02:56:25;47726.66;;;-141.97;90.87
7018;BME280;3549;42.162;24.726;2023-05-23T02:58:52;47642.09;;;-141.97;90.13
7018;BME280;3549;42.162;24.726;2023-05-23T03:01:17;47724.75;;;-141.97;90.80
7018;BME280;3549;42.162;24.726;2023-05-23T03:03:43;47690.16;;;-141.97;90.84
7018;BME280;3549;42.162;24.726;2023-05-23T03:06:08;47745.88;;;-141.97;91.34
7018;BME280;3549;42.162;24.726;2023-05-23T03:08:41;47636.31;;;-141.97;91.40
7018;BME280;3549;42.162;24.726;2023-05-23T03:11:07;47857.38;;;-141.97;90.74
7018;BME280;3549;42.162;24.726;2023-05-23T03:13:33;47647.84;;;-141.97;90.59
7018;BME280;3549;42.162;24.726;2023-05-23T03:15:58;47780.47;;;-141.97;90.45
7018;BME280;3549;42.162;24.726;2023-05-23T03:18:24;47742.03;;;-141.97;90.11
7018;BME280;3549;42.162;24.726;2023-05-23T03:20:49;47718.97;;;-141.97;89.77
7018;BME280;3549;42.162;24.726;2023-05-23T03:23:15;47703.59;;;-141.97;89.16
7018;BME280;3549;42.162;24.726;2023-05-23T03:25:42;47711.28;;;-141.97;89.05
7018;BME280;3549;42.162;24.726;2023-05-23T03:28:07;47761.25;;;-141.97;88.33
7018;BME280;3549;42.162;24.726;2023-05-23T03:30:33;47697.84;;;-141.97;87.85
7018;BME280;3549;42.162;24.726;2023-05-23T03:32:58;47720.91;;;-141.97;87.93
7018;BME280;3549;42.162;24.726;2023-05-23T03:35:24;47772.78;;;-141.97;88.71
7018;BME280;3549;42.162;24.726;2023-05-23T03:37:49;47722.81;;;-141.97;88.90
7018;BME280;3549;42.162;24.726;2023-05-23T03:40:14;47720.91;;;-141.97;89.33
7018;BME280;3549;42.162;24.726;2023-05-23T03:42:40;47684.38;;;-141.97;89.93
7018;BME280;3549;42.162;24.726;2023-05-23T03:45:05;47788.19;;;-141.97;90.26
7018;BME280;3549;42.162;24.726;2023-05-23T03:47:31;47730.50;;;-141.97;90.26
7018;BME280;3549;42.162;24.726;2023-05-23T03:49:56;47636.31;;;-141.97;90.30
7018;BME280;3549;42.162;24.726;2023-05-23T03:52:22;47695.91;;;-141.97;89.98
7018;BME280;3549;42.162;24.726;2023-05-23T03:54:47;47751.66;;;-141.97;89.22
7018;BME280;3549;42.162;24.726;2023-05-23T03:57:13;47653.63;;;-141.97;87.87
7018;BME280;3549;42.162;24.726;2023-05-23T03:59:38;47649.78;;;-141.97;87.58
7018;BME280;3549;42.162;24.726;2023-05-23T04:02:04;47697.84;;;-141.97;86.66
7018;BME280;3549;42.162;24.726;2023-05-23T04:04:30;47674.78;;;-141.97;86.11
7018;BME280;3549;42.162;24.726;2023-05-23T04:06:56;47638.25;;;-141.97;85.59
7018;BME280;3549;42.162;24.726;2023-05-23T04:09:22;47834.31;;;-141.97;84.59
7018;BME280;3549;42.162;24.726;2023-05-23T04:11:48;47699.75;;;-141.97;83.20
7018;BME280;3549;42.162;24.726;2023-05-23T04:14:14;47726.66;;;-141.97;82.36
7018;BME280;3549;42.162;24.726;2023-05-23T04:16:39;47697.84;;;-141.97;81.55
7018;BME280;3549;42.162;24.726;2023-05-23T04:19:09;47690.16;;;-141.97;80.89
7018;BME280;3549;42.162;24.726;2023-05-23T04:21:34;47724.75;;;-141.97;80.38
7018;BME280;3549;42.162;24.726;2023-05-23T04:24:00;47615.19;;;-141.97;78.80
7018;BME280;3549;42.162;24.726;2023-05-23T04:26:26;47651.69;;;-141.97;78.19
7018;BME280;3549;42.162;24.726;2023-05-23T04:28:53;47745.88;;;-141.97;77.56
7018;BME280;3549;42.162;24.726;2023-05-23T04:31:21;47770.88;;;-141.97;78.05
7018;BME280;3549;42.162;24.726;2023-05-23T04:33:47;47692.06;;;-141.97;77.49
7018;BME280;3549;42.162;24.726;2023-05-23T04:36:13;47743.97;;;-141.97;77.81
7018;BME280;3549;42.162;24.726;2023-05-23T04:38:38;47626.72;;;-141.97;77.75
7018;BME280;3549;42.162;24.726;2023-05-23T04:41:06;47680.53;;;-141.97;78.45
7018;BME280;3549;42.162;24.726;2023-05-23T04:43:31;47734.34;;;-141.97;78.10
7018;BME280;3549;42.162;24.726;2023-05-23T04:46:00;47720.91;;;-141.97;78.18
7018;BME280;3549;42.162;24.726;2023-05-23T04:48:26;47711.28;;;-141.97;77.01
7018;BME280;3549;42.162;24.726;2023-05-23T04:50:52;47684.38;;;-141.97;75.47
7018;BME280;3549;42.162;24.726;2023-05-23T04:53:23;47694.00;;;-141.97;75.33
7018;BME280;3549;42.162;24.726;2023-05-23T04:55:48;47695.91;;;-141.97;73.85
7018;BME280;3549;42.162;24.726;2023-05-23T04:58:13;47703.59;;;-141.97;73.05
7018;BME280;3549;42.162;24.726;2023-05-23T05:00:39;47670.91;;;-141.97;71.69
7018;BME280;3549;42.162;24.726;2023-05-23T05:03:04;47694.00;;;-141.97;71.29
7018;BME280;3549;42.162;24.726;2023-05-23T05:05:30;47720.91;;;-141.97;71.37
7018;BME280;3549;42.162;24.726;2023-05-23T05:07:55;47707.44;;;-141.97;71.78
7018;BME280;3549;42.162;24.726;2023-05-23T05:10:21;47743.97;;;-141.97;71.89
7018;BME280;3549;42.162;24.726;2023-05-23T05:12:46;47686.31;;;-141.97;72.22
7018;BME280;3549;42.162;24.726;2023-05-23T05:15:16;47680.53;;;-141.97;72.10
7018;BME280;3549;42.162;24.726;2023-05-23T05:17:42;47688.22;;;-141.97;71.15
7018;BME280;3549;42.162;24.726;2023-05-23T05:20:08;47701.69;;;-141.97;71.86
7018;BME280;3549;42.162;24.726;2023-05-23T05:22:37;47707.44;;;-141.97;71.78
7018;BME280;3549;42.162;24.726;2023-05-23T05:25:08;47718.97;;;-141.97;72.58
7018;BME280;3549;42.162;24.726;2023-05-23T05:27:33;47694.00;;;-141.97;72.13
7018;BME280;3549;42.162;24.726;2023-05-23T05:29:59;47699.75;;;-141.97;72.09
7018;BME280;3549;42.162;24.726;2023-05-23T05:32:29;47686.31;;;-141.97;71.68
7018;BME280;3549;42.162;24.726;2023-05-23T05:35:01;47680.53;;;-141.97;70.69
7018;BME280;3549;42.162;24.726;2023-05-23T05:37:27;47692.06;;;-141.97;69.70
7018;BME280;3549;42.162;24.726;2023-05-23T05:39:53;47678.63;;;-141.97;69.41
7018;BME280;3549;42.162;24.726;2023-05-23T05:42:20;47651.69;;;-141.97;69.41
7018;BME280;3549;42.162;24.726;2023-05-23T05:44:46;47686.31;;;-141.97;69.43
7018;BME280;3549;42.162;24.726;2023-05-23T05:47:11;47684.38;;;-141.97;69.10
7018;BME280;3549;42.162;24.726;2023-05-23T05:49:37;47722.81;;;-141.97;69.24
7018;BME280;3549;42.162;24.726;2023-05-23T05:52:03;47684.38;;;-141.97;68.66
7018;BME280;3549;42.162;24.726;2023-05-23T05:54:28;47695.91;;;-141.97;67.15
7018;BME280;3549;42.162;24.726;2023-05-23T05:56:54;47651.69;;;-141.97;66.27
7018;BME280;3549;42.162;24.726;2023-05-23T05:59:20;47663.22;;;-141.97;66.07
7018;BME280;3549;42.162;24.726;2023-05-23T06:01:45;47688.22;;;-141.97;65.86
7018;BME280;3549;42.162;24.726;2023-05-23T06:04:10;47649.78;;;-141.97;64.57
7018;BME280;3549;42.162;24.726;2023-05-23T06:06:36;47669.00;;;-141.97;64.88
7018;BME280;3549;42.162;24.726;2023-05-23T06:09:02;47632.47;;;-141.97;64.78
7018;BME280;3549;42.162;24.726;2023-05-23T06:11:27;47672.84;;;-141.97;65.22
7018;BME280;3549;42.162;24.726;2023-05-23T06:13:52;47709.38;;;-141.97;65.61
7018;BME280;3549;42.162;24.726;2023-05-23T06:16:18;47726.66;;;-141.97;64.14
7018;BME280;3549;42.162;24.726;2023-05-23T06:18:43;47572.91;;;-141.97;64.45
7018;BME280;3549;42.162;24.726;2023-05-23T06:21:09;47695.91;;;-141.97;63.85
7018;BME280;3549;42.162;24.726;2023-05-23T06:23:34;47601.72;;;-141.97;64.89
7018;BME280;3549;42.162;24.726;2023-05-23T06:26:00;47503.69;;;-141.97;63.79
7018;BME280;3549;42.162;24.726;2023-05-23T06:28:25;47588.28;;;-141.97;62.57
7018;BME280;3549;42.162;24.726;2023-05-23T06:30:51;47849.69;;;-141.97;61.92
7018;BME280;3549;42.162;24.726;2023-05-23T06:33:16;47638.25;;;-141.97;62.55
7018;BME280;3549;42.162;24.726;2023-05-23T06:35:42;47688.22;;;-141.97;61.65
7018;BME280;3549;42.162;24.726;2023-05-23T06:38:07;47549.84;;;-141.97;61.13
7018;BME280;3549;42.162;24.726;2023-05-23T06:40:33;47542.16;;;-141.97;61.75
7018;BME280;3549;42.162;24.726;2023-05-23T06:42:58;47515.22;;;-141.97;61.57
7018;BME280;3549;42.162;24.726;2023-05-23T06:45:23;47811.25;;;-141.97;62.51
7018;BME280;3549;42.162;24.726;2023-05-23T06:47:49;47680.53;;;-141.97;62.26
7018;BME280;3549;42.162;24.726;2023-05-23T06:50:14;47845.84;;;-141.97;61.57
7018;BME280;3549;42.162;24.726;2023-05-23T06:52:43;47599.81;;;-141.97;62.07
7018;BME280;3549;42.162;24.726;2023-05-23T06:55:10;47607.50;;;-141.97;61.74
7018;BME280;3549;42.162;24.726;2023-05-23T06:57:38;47768.94;;;-141.97;61.15
7018;BME280;3549;42.162;24.726;2023-05-23T07:00:04;47636.31;;;-141.97;61.11
7018;BME280;3549;42.162;24.726;2023-05-23T07:02:30;47669.00;;;-141.97;61.30
7018;BME280;3549;42.162;24.726;2023-05-23T07:04:55;47834.31;;;-141.97;60.43
7018;BME280;3549;42.162;24.726;2023-05-23T07:07:20;47659.38;;;-141.97;59.89
7018;BME280;3549;42.162;24.726;2023-05-23T07:09:46;47876.59;;;-141.97;58.37
7018;BME280;3549;42.162;24.726;2023-05-23T07:12:11;47661.31;;;-141.97;56.30
7018;BME280;3549;42.162;24.726;2023-05-23T07:14:37;47828.53;;;-141.97;57.68
7018;BME280;3549;42.162;24.726;2023-05-23T07:17:02;47663.22;;;-141.97;57.32
7018;BME280;3549;42.162;24.726;2023-05-23T07:19:28;47430.66;;;-141.97;55.24
7018;BME280;3549;42.162;24.726;2023-05-23T07:21:53;47676.69;;;-141.97;54.40
7018;BME280;3549;42.162;24.726;2023-05-23T07:24:18;47761.25;;;-141.97;55.25
7018;BME280;3549;42.162;24.726;2023-05-23T07:26:44;47820.84;;;-141.97;55.47
7018;BME280;3549;42.162;24.726;2023-05-23T07:29:09;47438.34;;;-141.97;54.53
7018;BME280;3549;42.162;24.726;2023-05-23T07:31:35;47786.25;;;-141.97;53.15
7018;BME280;3549;42.162;24.726;2023-05-23T07:34:00;47815.09;;;-141.97;53.68
7018;BME280;3549;42.162;24.726;2023-05-23T07:36:25;47469.09;;;-141.97;54.02
7018;BME280;3549;42.162;24.726;2023-05-23T07:38:51;47574.81;;;-141.97;52.74
7018;BME280;3549;42.162;24.726;2023-05-23T07:41:17;47763.19;;;-141.97;52.35
7018;BME280;3549;42.162;24.726;2023-05-23T07:43:42;47584.44;;;-141.97;51.68
7018;BME280;3549;42.162;24.726;2023-05-23T07:46:08;47515.22;;;-141.97;50.52
7018;BME280;3549;42.162;24.726;2023-05-23T07:48:33;47732.44;;;-141.97;50.07
7018;BME280;3549;42.162;24.726;2023-05-23T07:50:58;47570.97;;;-141.97;49.11
7018;BME280;3549;42.162;24.726;2023-05-23T07:53:24;47780.47;;;-141.97;51.49
7018;BME280;3549;42.162;24.726;2023-05-23T07:55:50;47615.19;;;-141.97;53.19
7018;BME280;3549;42.162;24.726;2023-05-23T07:58:15;47630.56;;;-141.97;52.46
7018;BME280;3549;42.162;24.726;2023-05-23T08:00:40;47595.97;;;-141.97;51.10
7018;BME280;3549;42.162;24.726;2023-05-23T08:03:06;47711.28;;;-141.97;50.46
7018;BME280;3549;42.162;24.726;2023-05-23T08:05:32;47555.59;;;-141.97;49.70
7018;BME280;3549;42.162;24.726;2023-05-23T08:07:57;47484.47;;;-141.97;49.26
7018;BME280;3549;42.162;24.726;2023-05-23T08:10:22;47588.28;;;-141.97;49.16
7018;BME280;3549;42.162;24.726;2023-05-23T08:12:48;47609.41;;;-141.97;50.00
7018;BME280;3549;42.162;24.726;2023-05-23T08:15:13;47603.66;;;-141.97;49.58
7018;BME280;3549;42.162;24.726;2023-05-23T08:17:39;47799.72;;;-141.97;48.60
7018;BME280;3549;42.162;24.726;2023-05-23T08:20:05;47569.06;;;-141.97;47.49
7018;BME280;3549;42.162;24.726;2023-05-23T08:22:31;47457.56;;;-141.97;46.62
7018;BME280;3549;42.162;24.726;2023-05-23T08:24:56;47820.84;;;-141.97;45.78
7018;BME280;3549;42.162;24.726;2023-05-23T08:27:22;47657.47;;;-141.97;44.05
7018;BME280;3549;42.162;24.726;2023-05-23T08:29:47;47538.28;;;-141.97;43.11
7018;BME280;3549;42.162;24.726;2023-05-23T08:32:13;47557.53;;;-141.97;43.88
7018;BME280;3549;42.162;24.726;2023-05-23T08:34:39;47697.84;;;-141.97;43.81
7018;BME280;3549;42.162;24.726;2023-05-23T08:37:05;47776.63;;;-141.97;42.74
7018;BME280;3549;42.162;24.726;2023-05-23T08:39:30;47569.06;;;-141.97;42.52
7018;BME280;3549;42.162;24.726;2023-05-23T08:41:56;47407.59;;;-141.97;43.10
7018;BME280;3549;42.162;24.726;2023-05-23T08:44:21;47434.50;;;-141.97;41.94
7018;BME280;3549;42.162;24.726;2023-05-23T08:46:47;47521.00;;;-141.97;41.37
7018;BME280;3549;42.162;24.726;2023-05-23T08:49:16;47430.66;;;-141.97;40.81
7018;BME280;3549;42.162;24.726;2023-05-23T08:51:42;47519.06;;;-141.97;41.49
7018;BME280;3549;42.162;24.726;2023-05-23T08:54:09;47415.28;;;-141.97;40.62
7018;BME280;3549;42.162;24.726;2023-05-23T08:56:37;47476.78;;;-141.97;39.93
7018;BME280;3549;42.162;24.726;2023-05-23T08:59:03;47409.53;;;-141.97;40.08
7018;BME280;3549;42.162;24.726;2023-05-23T09:01:30;47576.75;;;-141.97;40.08
7018;BME280;3549;42.162;24.726;2023-05-23T09:03:58;47534.44;;;-141.97;37.37
7018;BME280;3549;42.162;24.726;2023-05-23T09:06:28;47542.16;;;-141.97;36.76
7018;BME280;3549;42.162;24.726;2023-05-23T09:08:55;47321.13;;;-141.97;36.15
7018;BME280;3549;42.162;24.726;2023-05-23T09:11:20;47469.09;;;-141.97;36.97
7018;BME280;3549;42.162;24.726;2023-05-23T09:13:46;47417.22;;;-141.97;36.87
7018;BME280;3549;42.162;24.726;2023-05-23T09:16:15;47440.28;;;-141.97;35.26
7018;BME280;3549;42.162;24.726;2023-05-23T09:18:43;47490.25;;;-141.97;35.56
7018;BME280;3549;42.162;24.726;2023-05-23T09:21:09;47461.41;;;-141.97;36.23
7018;BME280;3549;42.162;24.726;2023-05-23T09:23:36;47544.06;;;-141.97;35.83
7018;BME280;3549;42.162;24.726;2023-05-23T09:26:08;47694.00;;;-141.97;35.27
7018;BME280;3549;42.162;24.726;2023-05-23T09:28:34;47736.28;;;-141.97;35.78
7018;BME280;3549;42.162;24.726;2023-05-23T09:31:01;47380.69;;;-141.97;37.47
7018;BME280;3549;42.162;24.726;2023-05-23T09:33:34;47522.91;;;-141.97;35.88
7018;BME280;3549;42.162;24.726;2023-05-23T09:36:02;47749.72;;;-141.97;36.16
7018;BME280;3549;42.162;24.726;2023-05-23T09:38:28;47565.22;;;-141.97;37.13
7018;BME280;3549;42.162;24.726;2023-05-23T09:40:54;47519.06;;;-141.97;36.89
7018;BME280;3549;42.162;24.726;2023-05-23T09:43:20;47469.09;;;-141.97;36.87
7018;BME280;3549;42.162;24.726;2023-05-23T09:45:46;47546.00;;;-141.97;36.74
7018;BME280;3549;42.162;24.726;2023-05-23T09:48:11;47665.16;;;-141.97;37.08
7018;BME280;3549;42.162;24.726;2023-05-23T09:50:39;47549.84;;;-141.97;36.89
7018;BME280;3549;42.162;24.726;2023-05-23T09:53:05;47538.28;;;-141.97;37.47
7018;BME280;3549;42.162;24.726;2023-05-23T09:55:31;47674.78;;;-141.97;36.81
7018;BME280;3549;42.162;24.726;2023-05-23T09:57:58;47519.06;;;-141.97;36.64
7018;BME280;3549;42.162;24.726;2023-05-23T10:00:23;47496.00;;;-141.97;36.80
7018;BME280;3549;42.162;24.726;2023-05-23T10:05:43;47549.84;;;-141.97;35.71
7018;BME280;3549;42.162;24.726;2023-05-23T10:08:18;47622.88;;;-141.97;34.76
7018;BME280;3549;42.162;24.726;2023-05-23T10:13:25;47515.22;;;-141.97;35.37
7018;BME280;3549;42.162;24.726;2023-05-23T10:16:02;47526.75;;;-141.97;35.64
7018;BME280;3549;42.162;24.726;2023-05-23T10:18:33;47503.69;;;-141.97;35.43
7018;BME280;3549;42.162;24.726;2023-05-23T10:21:06;47507.53;;;-141.97;35.09
7018;BME280;3549;42.162;24.726;2023-05-23T10:23:34;47472.94;;;-141.97;36.31
7018;BME280;3549;42.162;24.726;2023-05-23T10:26:03;47738.19;;;-141.97;36.40
7018;BME280;3549;42.162;24.726;2023-05-23T10:28:29;47476.78;;;-141.97;35.89
7018;BME280;3549;42.162;24.726;2023-05-23T10:30:55;47505.63;;;-141.97;35.80
7018;BME280;3549;42.162;24.726;2023-05-23T10:33:21;47496.00;;;-141.97;35.62
7018;BME280;3549;42.162;24.726;2023-05-23T10:36:09;47544.06;;;-141.97;35.17
7018;BME280;3549;42.162;24.726;2023-05-23T10:38:45;47730.50;;;-141.97;35.29
7018;BME280;3549;42.162;24.726;2023-05-23T10:41:43;47499.84;;;-141.97;34.35
7018;BME280;3549;42.162;24.726;2023-05-23T10:44:22;47503.69;;;-141.97;34.37
7018;BME280;3549;42.162;24.726;2023-05-23T10:49:19;47538.28;;;-141.97;34.42
7018;BME280;3549;42.162;24.726;2023-05-23T10:51:49;47447.97;;;-141.97;34.81
7018;BME280;3549;42.162;24.726;2023-05-23T10:54:18;47536.38;;;-141.97;35.37
7018;BME280;3549;42.162;24.726;2023-05-23T10:56:47;47492.16;;;-141.97;35.25
7018;BME280;3549;42.162;24.726;2023-05-23T10:59:27;47476.78;;;-141.97;34.88
7018;BME280;3549;42.162;24.726;2023-05-23T11:01:54;47465.25;;;-141.97;35.03
7018;BME280;3549;42.162;24.726;2023-05-23T11:04:27;47534.44;;;-141.97;35.08
7018;BME280;3549;42.162;24.726;2023-05-23T11:06:54;47484.47;;;-141.97;35.23
7018;BME280;3549;42.162;24.726;2023-05-23T11:09:20;47430.66;;;-141.97;35.28
7018;BME280;3549;42.162;24.726;2023-05-23T11:17:14;47419.13;;;-141.97;35.67
7018;BME280;3549;42.162;24.726;2023-05-23T11:20:03;47530.59;;;-141.97;35.43
7018;BME280;3549;42.162;24.726;2023-05-23T11:22:33;47524.84;;;-141.97;35.79
7018;BME280;3549;42.162;24.726;2023-05-23T11:25:00;47486.41;;;-141.97;35.87
7018;BME280;3549;42.162;24.726;2023-05-23T11:27:37;47484.47;;;-141.97;35.36
7018;BME280;3549;42.162;24.726;2023-05-23T11:32:34;47488.31;;;-141.97;34.95
7018;BME280;3549;42.162;24.726;2023-05-23T11:35:10;47515.22;;;-141.97;35.97
7018;BME280;3549;42.162;24.726;2023-05-23T11:37:39;47344.19;;;-141.97;35.66
7018;BME280;3549;42.162;24.726;2023-05-23T11:42:53;47669.00;;;-141.97;32.25
7018;BME280;3549;42.162;24.726;2023-05-23T11:45:19;47419.13;;;-141.97;30.90
7018;BME280;3549;42.162;24.726;2023-05-23T11:47:45;47626.72;;;-141.97;31.59
7018;BME280;3549;42.162;24.726;2023-05-23T11:50:10;47419.13;;;-141.97;32.04
7018;BME280;3549;42.162;24.726;2023-05-23T11:52:36;47730.50;;;-141.97;32.06
7018;BME280;3549;42.162;24.726;2023-05-23T11:55:01;47442.19;;;-141.97;31.00
7018;BME280;3549;42.162;24.726;2023-05-23T11:57:27;47442.19;;;-141.97;31.38
7018;BME280;3549;42.162;24.726;2023-05-23T11:59:53;47384.53;;;-141.97;31.50
7018;BME280;3549;42.162;24.726;2023-05-23T12:02:20;47422.97;;;-141.97;30.84
7018;BME280;3549;42.162;24.726;2023-05-23T12:04:47;47649.78;;;-141.97;29.79
7018;BME280;3549;42.162;24.726;2023-05-23T12:07:13;47436.44;;;-141.97;29.85
7018;BME280;3549;42.162;24.726;2023-05-23T12:09:43;47374.94;;;-141.97;30.22
7018;BME280;3549;42.162;24.726;2023-05-23T12:12:08;47278.84;;;-141.97;32.24
7018;BME280;3549;42.162;24.726;2023-05-23T12:14:34;47394.16;;;-141.97;32.66
7018;BME280;3549;42.162;24.726;2023-05-23T12:16:59;47619.03;;;-141.97;32.57
7018;BME280;3549;42.162;24.726;2023-05-23T12:19:25;47342.25;;;-141.97;33.12
7018;BME280;3549;42.162;24.726;2023-05-23T12:21:51;47276.91;;;-141.97;33.29
7018;BME280;3549;42.162;24.726;2023-05-23T12:24:21;47384.53;;;-141.97;32.28
7018;BME280;3549;42.162;24.726;2023-05-23T12:26:57;47415.28;;;-141.97;32.29
7018;BME280;3549;42.162;24.726;2023-05-23T12:29:31;47142.38;;;-141.97;31.35
7018;BME280;3549;42.162;24.726;2023-05-23T12:31:57;47348.03;;;-141.97;31.79
7018;BME280;3549;42.162;24.726;2023-05-23T12:34:23;47651.69;;;-141.97;32.92
7018;BME280;3549;42.162;24.726;2023-05-23T12:36:49;47353.78;;;-141.97;33.09
7018;BME280;3549;42.162;24.726;2023-05-23T12:39:23;47284.59;;;-141.97;32.72
7018;BME280;3549;42.162;24.726;2023-05-23T12:41:49;47169.28;;;-141.97;32.49
7018;BME280;3549;42.162;24.726;2023-05-23T12:44:15;47288.44;;;-141.97;31.83
7018;BME280;3549;42.162;24.726;2023-05-23T12:46:41;47699.75;;;-141.97;31.45
7018;BME280;3549;42.162;24.726;2023-05-23T12:49:06;47338.41;;;-141.97;31.27
7018;BME280;3549;42.162;24.726;2023-05-23T12:51:32;47324.97;;;-141.97;31.41
7018;BME280;3549;42.162;24.726;2023-05-23T12:53:57;47532.53;;;-141.97;31.32
7018;BME280;3549;42.162;24.726;2023-05-23T12:56:23;47505.63;;;-141.97;31.12
7018;BME280;3549;42.162;24.726;2023-05-23T12:58:48;47159.69;;;-141.97;30.15
7018;BME280;3549;42.162;24.726;2023-05-23T13:01:14;47284.59;;;-141.97;29.91
7018;BME280;3549;42.162;24.726;2023-05-23T13:03:39;47238.47;;;-141.97;30.02
7018;BME280;3549;42.162;24.726;2023-05-23T13:06:05;47415.28;;;-141.97;28.98
7018;BME280;3549;42.162;24.726;2023-05-23T13:08:31;47198.09;;;-141.97;28.59
7018;BME280;3549;42.162;24.726;2023-05-23T13:10:57;47330.72;;;-141.97;28.22
7018;BME280;3549;42.162;24.726;2023-05-23T13:13:22;47336.50;;;-141.97;28.95
7018;BME280;3549;42.162;24.726;2023-05-23T13:15:48;47457.56;;;-141.97;28.26